createdAt,value
2019-05-28T00:00:51.713Z,100697.26
2019-05-28T00:03:19.189Z,100703.81
2019-05-28T00:05:46.687Z,100700.32
2019-05-28T00:08:14.174Z,100702.94
2019-05-28T00:10:41.645Z,100697.66
2019-05-28T00:13:09.118Z,100695.48
2019-05-28T00:15:36.600Z,100695.45
2019-05-28T00:18:04.045Z,100690.23
2019-05-28T00:20:31.546Z,100700.72
2019-05-28T00:22:59.485Z,100691.14
2019-05-28T00:25:29.379Z,100692.45
2019-05-28T00:27:56.567Z,100686.38
2019-05-28T00:30:24.921Z,100678.95
2019-05-28T00:32:52.380Z,100686.81
2019-05-28T00:35:19.889Z,100682.44
2019-05-28T00:37:47.344Z,100682.88
2019-05-28T00:40:14.847Z,100679.38
2019-05-28T00:42:42.293Z,100678.14
2019-05-28T00:45:09.764Z,100677.30
2019-05-28T00:47:37.211Z,100682.53
2019-05-28T00:50:05.468Z,100682.97
2019-05-28T00:52:32.937Z,100678.23
2019-05-28T00:55:00.411Z,100670.80
2019-05-28T00:57:27.996Z,100675.20
2019-05-28T00:59:55.451Z,100671.31
2019-05-28T01:02:22.909Z,100668.25
2019-05-28T01:04:50.462Z,100663.88
2019-05-28T01:07:17.974Z,100667.41
2019-05-28T01:09:45.460Z,100670.03
2019-05-28T01:12:12.889Z,100661.36
2019-05-28T01:14:40.381Z,100660.86
2019-05-28T01:17:07.838Z,100656.89
2019-05-28T01:19:35.391Z,100660.83
2019-05-28T01:22:02.858Z,100654.41
2019-05-28T01:24:30.331Z,100663.64
2019-05-28T01:26:57.828Z,100652.31
2019-05-28T01:29:25.288Z,100648.89
2019-05-28T01:31:52.761Z,100652.41
2019-05-28T01:34:20.359Z,100651.13
2019-05-28T01:36:47.848Z,100652.47
2019-05-28T01:39:15.312Z,100649.89
2019-05-28T01:41:42.782Z,100645.15
2019-05-28T01:44:10.231Z,100650.85
2019-05-28T01:46:37.734Z,100643.03
2019-05-28T01:49:05.179Z,100637.82
2019-05-28T01:51:32.654Z,100630.46
2019-05-28T01:54:00.136Z,100630.90
2019-05-28T01:56:27.572Z,100625.72
2019-05-28T01:58:55.055Z,100620.52
2019-05-28T02:01:22.519Z,100620.08
2019-05-28T02:03:50.020Z,100622.29
2019-05-28T02:06:17.496Z,100621.89
2019-05-28T02:08:44.964Z,100623.20
2019-05-28T02:11:12.459Z,100619.77
2019-05-28T02:13:39.912Z,100622.83
2019-05-28T02:16:07.372Z,100629.38
2019-05-28T02:18:34.826Z,100632.92
2019-05-28T02:21:02.412Z,100629.91
2019-05-28T02:23:29.858Z,100636.70
2019-05-28T02:25:57.341Z,100639.66
2019-05-28T02:28:24.814Z,100633.11
2019-05-28T02:30:52.279Z,100642.34
2019-05-28T02:33:19.765Z,100635.48
2019-05-28T02:35:47.242Z,100638.13
2019-05-28T02:38:14.728Z,100641.22
2019-05-28T02:40:42.444Z,100643.87
2019-05-28T02:43:10.210Z,100647.80
2019-05-28T02:45:37.946Z,100643.46
2019-05-28T02:48:05.511Z,100649.60
2019-05-28T02:50:59.771Z,100647.89
2019-05-28T02:53:27.598Z,100650.91
2019-05-28T02:55:56.177Z,100653.97
2019-05-28T02:58:27.256Z,100647.89
2019-05-28T03:00:55.060Z,100652.66
2019-05-28T03:03:22.829Z,100663.60
2019-05-28T03:05:51.183Z,100658.36
2019-05-28T03:08:18.985Z,100655.30
2019-05-28T03:11:02.346Z,100654.06
2019-05-28T03:13:16.263Z,100652.75
2019-05-28T03:15:45.718Z,100654.09
2019-05-28T03:18:13.543Z,100659.77
2019-05-28T03:20:41.309Z,100658.39
2019-05-28T03:23:08.980Z,100660.86
2019-05-28T03:25:36.847Z,100672.09
2019-05-28T03:28:05.640Z,100665.26
2019-05-28T03:30:33.413Z,100668.81
2019-05-28T03:33:01.094Z,100664.47
2019-05-28T03:35:28.851Z,100661.91
2019-05-28T03:37:56.518Z,100667.59
2019-05-28T03:40:39.740Z,100667.09
2019-05-28T03:43:07.246Z,100665.78
2019-05-28T03:45:35.032Z,100671.48
2019-05-28T03:48:02.474Z,100670.55
2019-05-28T03:50:29.978Z,100674.55
2019-05-28T03:52:57.422Z,100674.63
2019-05-28T03:55:25.434Z,100681.20
2019-05-28T03:57:53.139Z,100678.56
2019-05-28T04:00:20.974Z,100679.00
2019-05-28T04:02:48.745Z,100686.85
2019-05-28T04:05:16.344Z,100696.92
2019-05-28T04:07:45.626Z,100691.30
2019-05-28T04:10:13.621Z,100696.48
2019-05-28T04:12:41.867Z,100693.42
2019-05-28T04:15:10.201Z,100695.14
2019-05-28T04:17:38.449Z,100699.53
2019-05-28T04:20:06.581Z,100698.66
2019-05-28T04:22:34.788Z,100697.78
2019-05-28T04:25:03.196Z,100707.42
2019-05-28T04:27:31.465Z,100709.63
2019-05-28T04:30:00.525Z,100712.66
2019-05-28T04:32:39.890Z,100703.00
2019-05-28T04:34:57.738Z,100707.37
2019-05-28T04:37:25.815Z,100713.42
2019-05-28T04:39:53.454Z,100710.73
2019-05-28T04:42:20.979Z,100714.20
2019-05-28T04:44:48.457Z,100716.80
2019-05-28T04:47:15.914Z,100720.72
2019-05-28T04:49:43.609Z,100719.78
2019-05-28T04:52:11.058Z,100725.37
2019-05-28T04:54:38.562Z,100723.08
2019-05-28T04:57:06.044Z,100727.38
2019-05-28T04:59:33.729Z,100732.97
2019-05-28T05:02:01.320Z,100727.70
2019-05-28T05:04:28.780Z,100722.47
2019-05-28T05:06:56.274Z,100726.83
2019-05-28T05:09:23.771Z,100728.55
2019-05-28T05:11:51.517Z,100730.34
2019-05-28T05:14:19.287Z,100731.63
2019-05-28T05:16:46.822Z,100738.99
2019-05-28T05:19:15.723Z,100736.28
2019-05-28T05:21:43.195Z,100740.00
2019-05-28T05:24:11.343Z,100741.91
2019-05-28T05:26:40.178Z,100742.81
2019-05-28T05:29:07.622Z,100749.37
2019-05-28T05:31:35.120Z,100752.02
2019-05-28T05:34:02.910Z,100754.45
2019-05-28T05:36:30.917Z,100751.37
2019-05-28T05:38:58.722Z,100753.55
2019-05-28T05:41:26.397Z,100753.93
2019-05-28T05:43:53.881Z,100759.92
2019-05-28T05:46:21.353Z,100760.29
2019-05-28T05:48:48.877Z,100755.95
2019-05-28T05:51:16.344Z,100764.06
2019-05-28T05:53:44.223Z,100758.79
2019-05-28T05:56:12.274Z,100759.56
2019-05-28T05:58:39.915Z,100755.63
2019-05-28T06:01:07.528Z,100759.47
2019-05-28T06:03:40.322Z,100762.43
2019-05-28T06:06:04.425Z,100757.66
2019-05-28T06:08:32.354Z,100762.03
2019-05-28T06:10:59.820Z,100767.34
2019-05-28T06:13:27.567Z,100774.33
2019-05-28T06:15:55.181Z,100771.64
2019-05-28T06:18:23.040Z,100771.64
2019-05-28T06:20:50.828Z,100763.30
2019-05-28T06:23:18.653Z,100768.48
2019-05-28T06:25:46.639Z,100767.61
2019-05-28T06:28:14.134Z,100772.32
2019-05-28T06:30:41.645Z,100773.56
2019-05-28T06:33:09.144Z,100776.13
2019-05-28T06:35:37.018Z,100780.84
2019-05-28T06:38:04.725Z,100782.98
2019-05-28T06:40:32.459Z,100778.65
2019-05-28T06:43:00.419Z,100783.83
2019-05-28T06:45:27.912Z,100784.67
2019-05-28T06:47:55.407Z,100786.89
2019-05-28T06:50:23.547Z,100783.86
2019-05-28T06:52:51.417Z,100786.89
2019-05-28T06:55:19.213Z,100784.30
2019-05-28T06:57:47.246Z,100790.83
2019-05-28T07:00:14.918Z,100792.13
2019-05-28T07:02:42.685Z,100796.00
2019-05-28T07:05:10.221Z,100800.28
2019-05-28T07:07:38.023Z,100800.28
2019-05-28T07:10:05.872Z,100800.75
2019-05-28T07:12:33.770Z,100798.53
2019-05-28T07:15:02.006Z,100795.91
2019-05-28T07:17:29.951Z,100793.28
2019-05-28T07:19:57.731Z,100793.72
2019-05-28T07:22:25.362Z,100795.37
2019-05-28T07:24:53.025Z,100784.03
2019-05-28T07:27:20.668Z,100800.14
2019-05-28T07:29:48.130Z,100795.80
2019-05-28T07:32:15.578Z,100798.80
2019-05-28T07:34:43.389Z,100797.83
2019-05-28T07:37:11.145Z,100793.48
2019-05-28T07:39:38.930Z,100798.33
2019-05-28T07:42:06.805Z,100806.67
2019-05-28T07:44:34.542Z,100809.70
2019-05-28T07:47:02.141Z,100808.32
2019-05-28T07:49:29.669Z,100801.22
2019-05-28T07:51:57.127Z,100803.74
2019-05-28T07:54:25.032Z,100810.70
2019-05-28T07:56:52.879Z,100812.89
2019-05-28T07:59:20.681Z,100809.80
2019-05-28T08:01:48.348Z,100814.61
2019-05-28T08:04:16.177Z,100811.98
2019-05-28T08:06:54.338Z,100817.60
2019-05-28T08:09:13.405Z,100820.16
2019-05-28T08:11:40.882Z,100820.53
2019-05-28T08:14:08.388Z,100815.68
2019-05-28T08:16:36.136Z,100815.17
2019-05-28T08:19:04.140Z,100819.08
2019-05-28T08:21:32.483Z,100825.20
2019-05-28T08:24:00.316Z,100821.66
2019-05-28T08:26:28.293Z,100826.45
2019-05-28T08:28:55.744Z,100832.94
2019-05-28T08:31:23.211Z,100829.44
2019-05-28T08:33:50.727Z,100828.97
2019-05-28T08:36:18.378Z,100838.89
2019-05-28T08:38:46.155Z,100839.33
2019-05-28T08:41:14.056Z,100835.86
2019-05-28T08:43:41.964Z,100841.11
2019-05-28T08:46:09.840Z,100835.49
2019-05-28T08:48:37.293Z,100842.02
2019-05-28T08:51:04.889Z,100836.23
2019-05-28T08:53:32.370Z,100831.28
2019-05-28T08:56:00.205Z,100834.20
2019-05-28T08:58:27.963Z,100841.56
2019-05-28T09:00:55.578Z,100842.11
2019-05-28T09:03:24.662Z,100843.83
2019-05-28T09:05:52.237Z,100846.92
2019-05-28T09:08:35.473Z,100849.05
2019-05-28T09:10:49.489Z,100850.72
2019-05-28T09:13:16.949Z,100849.45
2019-05-28T09:15:44.548Z,100857.36
2019-05-28T09:18:12.273Z,100847.77
2019-05-28T09:20:39.989Z,100857.36
2019-05-28T09:23:07.915Z,100863.52
2019-05-28T09:25:35.830Z,100860.42
2019-05-28T09:28:03.656Z,100857.62
2019-05-28T09:30:31.175Z,100858.86
2019-05-28T09:32:58.684Z,100860.17
2019-05-28T09:35:43.371Z,100853.23
2019-05-28T09:37:55.867Z,100858.45
2019-05-28T09:40:23.737Z,100864.55
2019-05-28T09:42:52.913Z,100871.59
2019-05-28T09:45:23.003Z,100872.03
2019-05-28T09:47:49.807Z,100870.28
2019-05-28T09:50:29.945Z,100874.98
2019-05-28T09:52:54.669Z,100871.85
2019-05-28T09:55:16.564Z,100872.19
2019-05-28T09:57:47.876Z,100882.72
2019-05-28T10:00:15.144Z,100885.45
2019-05-28T10:02:42.930Z,100884.98
2019-05-28T10:05:10.400Z,100882.69
2019-05-28T10:07:37.911Z,100885.20
2019-05-28T10:10:05.985Z,100883.79
2019-05-28T10:12:33.580Z,100892.55
2019-05-28T10:15:01.044Z,100893.09
2019-05-28T10:17:28.524Z,100892.69
2019-05-28T10:19:55.998Z,100900.06
2019-05-28T10:22:23.520Z,100902.69
2019-05-28T10:24:51.095Z,100902.69
2019-05-28T10:27:18.613Z,100907.50
2019-05-28T10:29:46.100Z,100911.30
2019-05-28T10:32:13.569Z,100894.00
2019-05-28T10:34:41.057Z,100904.55
2019-05-28T10:37:08.653Z,100906.80
2019-05-28T10:39:36.193Z,100912.46
2019-05-28T10:42:03.749Z,100899.43
2019-05-28T10:44:31.246Z,100906.30
2019-05-28T10:46:58.750Z,100898.34
2019-05-28T10:49:26.210Z,100909.19
2019-05-28T10:51:53.817Z,100913.45
2019-05-28T10:54:21.304Z,100914.51
2019-05-28T10:56:48.892Z,100915.28
2019-05-28T10:59:16.871Z,100922.11
2019-05-28T11:01:44.668Z,100918.53
2019-05-28T11:04:12.610Z,100919.41
2019-05-28T11:06:51.542Z,100914.66
2019-05-28T11:09:10.136Z,100927.91
2019-05-28T11:11:37.973Z,100930.47
2019-05-28T11:14:05.956Z,100927.94
2019-05-28T11:16:33.613Z,100926.48
2019-05-28T11:19:01.484Z,100932.81
2019-05-28T11:21:29.254Z,100928.20
2019-05-28T11:23:57.020Z,100940.77
2019-05-28T11:26:24.994Z,100938.64
2019-05-28T11:28:52.772Z,100934.23
2019-05-28T11:31:20.500Z,100941.23
2019-05-28T11:33:48.426Z,100945.62
2019-05-28T11:36:16.422Z,100942.11
2019-05-28T11:38:44.150Z,100945.40
2019-05-28T11:41:12.126Z,100951.71
2019-05-28T11:43:40.222Z,100954.27
2019-05-28T11:46:08.078Z,100957.84
2019-05-28T11:48:35.551Z,100957.59
2019-05-28T11:51:03.524Z,100957.66
2019-05-28T11:53:31.287Z,100965.55
2019-05-28T11:55:58.960Z,100960.30
2019-05-28T11:58:26.942Z,100958.03
2019-05-28T12:00:55.002Z,100964.60
2019-05-28T12:03:22.986Z,100962.78
2019-05-28T12:05:50.561Z,100966.13
2019-05-28T12:08:18.049Z,100958.98
2019-05-28T12:10:45.554Z,100958.34
2019-05-28T12:13:13.645Z,100961.73
2019-05-28T12:15:41.658Z,100969.11
2019-05-28T12:18:09.489Z,100967.00
2019-05-28T12:20:37.364Z,100971.27
2019-05-28T12:23:11.374Z,100971.98
2019-05-28T12:25:34.880Z,100972.23
2019-05-28T12:28:02.482Z,100973.03
2019-05-28T12:30:30.023Z,100980.81
2019-05-28T12:32:57.519Z,100983.52
2019-05-28T12:35:29.241Z,100990.58
2019-05-28T12:37:54.868Z,100984.55
2019-05-28T12:40:22.505Z,100992.37
2019-05-28T12:42:49.992Z,100983.64
2019-05-28T12:45:17.568Z,100992.17
2019-05-28T12:47:45.100Z,100994.41
2019-05-28T12:50:19.788Z,101000.11
2019-05-28T12:52:46.772Z,100991.77
2019-05-28T12:55:13.288Z,101005.25
2019-05-28T12:57:41.176Z,100998.08
2019-05-28T13:00:08.948Z,100998.80
2019-05-28T13:02:36.506Z,100998.24
2019-05-28T13:05:05.967Z,101000.07
2019-05-28T13:07:33.801Z,101007.09
2019-05-28T13:10:01.280Z,101008.41
2019-05-28T13:12:28.799Z,101003.70
2019-05-28T13:14:56.819Z,101007.97
2019-05-28T13:17:24.934Z,101010.13
2019-05-28T13:19:52.951Z,101007.45
2019-05-28T13:22:20.727Z,101005.22
2019-05-28T13:24:48.592Z,101010.00
2019-05-28T13:27:18.472Z,101013.44
2019-05-28T13:29:45.975Z,101011.48
2019-05-28T13:32:13.495Z,101018.11
2019-05-28T13:34:40.997Z,101021.77
2019-05-28T13:37:08.769Z,101027.91
2019-05-28T13:39:36.656Z,101021.02
2019-05-28T13:42:04.258Z,101020.37
2019-05-28T13:44:32.243Z,101023.33
2019-05-28T13:47:00.048Z,101028.07
2019-05-28T13:49:27.677Z,101028.47
2019-05-28T13:52:10.938Z,101023.61
2019-05-28T13:54:25.382Z,101028.52
2019-05-28T13:56:54.142Z,101034.34
2019-05-28T13:59:22.181Z,101046.58
2019-05-28T14:01:50.473Z,101036.92
2019-05-28T14:04:19.174Z,101047.49
2019-05-28T14:06:48.002Z,101046.50
2019-05-28T14:09:17.186Z,101042.03
2019-05-28T14:11:45.362Z,101045.91
2019-05-28T14:14:14.722Z,101048.94
2019-05-28T14:16:43.015Z,101050.58
2019-05-28T14:19:11.203Z,101048.85
2019-05-28T14:21:40.149Z,101044.92
2019-05-28T14:24:08.620Z,101042.76
2019-05-28T14:26:36.914Z,101054.20
2019-05-28T14:29:07.911Z,101053.94
2019-05-28T14:31:36.713Z,101064.42
2019-05-28T14:34:04.611Z,101068.16
2019-05-28T14:36:33.277Z,101071.88
2019-05-28T14:39:03.868Z,101074.73
2019-05-28T14:41:32.684Z,101073.59
2019-05-28T14:44:00.894Z,101078.58
2019-05-28T14:46:28.862Z,101079.80
2019-05-28T14:48:56.789Z,101075.91
2019-05-28T14:51:25.312Z,101084.65
2019-05-28T14:53:53.806Z,101086.70
2019-05-28T14:56:22.236Z,101095.09
2019-05-28T14:58:51.002Z,101100.92
2019-05-28T15:01:19.710Z,101108.27
2019-05-28T15:03:48.261Z,101118.81
2019-05-28T15:06:16.654Z,101107.84
2019-05-28T15:08:45.139Z,101116.78
2019-05-28T15:11:14.055Z,101118.65
2019-05-28T15:13:42.049Z,101120.98
2019-05-28T15:16:10.000Z,101118.05
2019-05-28T15:18:40.190Z,101123.41
2019-05-28T15:21:07.886Z,101124.64
2019-05-28T15:23:35.576Z,101128.16
2019-05-28T15:26:03.708Z,101129.52
2019-05-28T15:28:31.802Z,101128.34
2019-05-28T15:31:00.372Z,101135.82
2019-05-28T15:33:29.044Z,101141.14
2019-05-28T15:35:57.462Z,101136.39
2019-05-28T15:38:26.302Z,101143.08
2019-05-28T15:40:55.840Z,101148.38
2019-05-28T15:43:26.510Z,101146.70
2019-05-28T15:45:54.709Z,101150.74
2019-05-28T15:48:23.612Z,101151.63
2019-05-28T15:50:52.321Z,101146.88
2019-05-28T15:53:21.053Z,101146.09
2019-05-28T15:55:48.899Z,101154.92
2019-05-28T15:58:16.887Z,101160.25
2019-05-28T16:00:44.399Z,101164.69
2019-05-28T16:03:12.410Z,101168.69
2019-05-28T16:05:40.308Z,101174.76
2019-05-28T16:08:08.003Z,101181.66
2019-05-28T16:10:35.795Z,101172.42
2019-05-28T16:13:03.694Z,101184.41
2019-05-28T16:15:31.363Z,101190.88
2019-05-28T16:17:58.928Z,101189.52
2019-05-28T16:20:26.885Z,101192.38
2019-05-28T16:22:54.671Z,101199.42
2019-05-28T16:25:22.901Z,101207.34
2019-05-28T16:27:50.752Z,101205.56
2019-05-28T16:30:18.700Z,101215.24
2019-05-28T16:32:46.478Z,101212.66
2019-05-28T16:35:14.140Z,101210.98
2019-05-28T16:37:42.735Z,101212.00
2019-05-28T16:40:15.663Z,101211.03
2019-05-28T16:42:42.638Z,101211.52
2019-05-28T16:45:11.558Z,101214.45
2019-05-28T16:47:39.117Z,101222.67
2019-05-28T16:50:08.980Z,101224.43
2019-05-28T16:52:36.792Z,101218.14
2019-05-28T16:55:07.796Z,101223.42
2019-05-28T16:57:35.388Z,101226.67
2019-05-28T17:00:03.185Z,101229.50
2019-05-28T17:02:30.776Z,101230.94
2019-05-28T17:04:58.269Z,101242.50
2019-05-28T17:07:26.092Z,101240.47
2019-05-28T17:09:53.965Z,101238.05
2019-05-28T17:12:21.483Z,101247.55
2019-05-28T17:14:48.970Z,101244.63
2019-05-28T17:17:16.430Z,101250.79
2019-05-28T17:19:44.867Z,101255.40
2019-05-28T17:22:12.497Z,101255.20
2019-05-28T17:24:40.024Z,101260.29
2019-05-28T17:27:07.520Z,101255.35
2019-05-28T17:29:35.017Z,101260.41
2019-05-28T17:32:02.527Z,101269.91
2019-05-28T17:34:30.034Z,101271.91
2019-05-28T17:36:57.491Z,101271.42
2019-05-28T17:39:25.021Z,101276.41
2019-05-28T17:41:52.478Z,101283.76
2019-05-28T17:44:20.001Z,101284.16
2019-05-28T17:46:47.497Z,101293.20
2019-05-28T17:49:15.024Z,101292.31
2019-05-28T17:51:42.476Z,101301.36
2019-05-28T17:54:10.012Z,101298.88
2019-05-28T17:56:37.613Z,101298.69
2019-05-28T17:59:05.094Z,101298.94
2019-05-28T18:01:32.646Z,101303.98
2019-05-28T18:04:00.143Z,101311.37
2019-05-28T18:06:27.756Z,101321.41
2019-05-28T18:08:55.337Z,101322.24
2019-05-28T18:11:22.817Z,101318.67
2019-05-28T18:13:50.327Z,101322.64
2019-05-28T18:16:17.851Z,101323.08
2019-05-28T18:18:45.430Z,101326.60
2019-05-28T18:21:12.915Z,101333.11
2019-05-28T18:23:40.538Z,101334.87
2019-05-28T18:26:07.997Z,101339.24
2019-05-28T18:28:35.513Z,101339.19
2019-05-28T18:31:03.010Z,101342.71
2019-05-28T18:33:30.565Z,101338.80
2019-05-28T18:35:58.011Z,101349.19
2019-05-28T18:38:28.387Z,101353.63
2019-05-28T18:40:55.900Z,101353.63
2019-05-28T18:43:23.701Z,101355.06
2019-05-28T18:45:51.227Z,101358.67
2019-05-28T18:48:19.022Z,101360.05
2019-05-28T18:50:46.787Z,101365.86
2019-05-28T18:53:14.767Z,101363.77
2019-05-28T18:55:42.716Z,101368.66
2019-05-28T18:58:10.757Z,101370.95
2019-05-28T19:00:38.593Z,101369.73
2019-05-28T19:03:06.097Z,101377.74
2019-05-28T19:05:33.578Z,101381.41
2019-05-28T19:08:01.069Z,101383.31
2019-05-28T19:10:28.548Z,101380.64
2019-05-28T19:12:58.220Z,101386.76
2019-05-28T19:15:25.384Z,101393.69
2019-05-28T19:17:53.009Z,101403.55
2019-05-28T19:20:20.473Z,101407.28
2019-05-28T19:22:51.115Z,101410.98
2019-05-28T19:25:18.608Z,101417.31
2019-05-28T19:27:46.447Z,101423.67
2019-05-28T19:30:13.927Z,101431.80
2019-05-28T19:32:41.501Z,101427.25
2019-05-28T19:35:09.112Z,101435.89
2019-05-28T19:37:36.572Z,101433.64
2019-05-28T19:40:04.441Z,101441.40
2019-05-28T19:42:32.181Z,101438.62
2019-05-28T19:44:59.684Z,101440.69
2019-05-28T19:47:29.636Z,101449.81
2019-05-28T19:49:56.891Z,101452.30
2019-05-28T19:52:24.717Z,101456.94
2019-05-28T19:54:52.491Z,101464.65
2019-05-28T19:57:20.644Z,101467.09
2019-05-28T19:59:49.673Z,101466.88
2019-05-28T20:02:17.271Z,101471.48
2019-05-28T20:04:44.782Z,101473.77
2019-05-28T20:07:12.326Z,101476.97
2019-05-28T20:09:39.844Z,101475.38
2019-05-28T20:12:12.679Z,101474.22
2019-05-28T20:14:37.201Z,101484.87
2019-05-28T20:17:04.975Z,101485.09
2019-05-28T20:19:35.270Z,101493.99
2019-05-28T20:22:02.021Z,101506.02
2019-05-28T20:24:29.616Z,101503.54
2019-05-28T20:26:57.140Z,101506.72
2019-05-28T20:29:24.833Z,101505.98
2019-05-28T20:31:52.723Z,101511.36
2019-05-28T20:34:20.644Z,101517.17
2019-05-28T20:36:48.465Z,101512.45
2019-05-28T20:39:16.133Z,101519.56
2019-05-28T20:41:44.090Z,101520.98
2019-05-28T20:44:11.550Z,101520.18
2019-05-28T20:46:39.032Z,101525.58
2019-05-28T20:49:06.768Z,101528.26
2019-05-28T20:51:34.669Z,101538.41
2019-05-28T20:54:02.437Z,101534.59
2019-05-28T20:56:30.321Z,101535.55
2019-05-28T20:59:01.031Z,101542.17
2019-05-28T21:01:28.204Z,101548.37
2019-05-28T21:03:56.575Z,101561.57
2019-05-28T21:06:24.082Z,101555.53
2019-05-28T21:08:52.127Z,101561.72
2019-05-28T21:11:19.997Z,101570.53
2019-05-28T21:13:48.317Z,101567.49
2019-05-28T21:16:16.049Z,101572.36
2019-05-28T21:18:43.922Z,101576.80
2019-05-28T21:21:11.588Z,101584.72
2019-05-28T21:23:39.364Z,101587.86
2019-05-28T21:26:06.847Z,101586.16
2019-05-28T21:28:34.376Z,101588.83
2019-05-28T21:31:02.121Z,101590.19
2019-05-28T21:33:29.641Z,101589.36
2019-05-28T21:35:57.366Z,101596.83
2019-05-28T21:38:25.028Z,101595.91
2019-05-28T21:40:53.517Z,101598.18
2019-05-28T21:43:21.088Z,101598.70
2019-05-28T21:45:48.560Z,101607.03
2019-05-28T21:48:16.085Z,101601.42
2019-05-28T21:50:43.549Z,101608.04
2019-05-28T21:53:11.048Z,101612.00
2019-05-28T21:55:38.526Z,101610.29
2019-05-28T21:58:05.976Z,101618.20
2019-05-28T22:00:48.308Z,101618.25
2019-05-28T22:03:15.773Z,101625.72
2019-05-28T22:05:43.222Z,101623.59
2019-05-28T22:08:10.661Z,101624.03
2019-05-28T22:10:38.119Z,101624.95
2019-05-28T22:13:18.573Z,101628.06
2019-05-28T22:15:34.890Z,101627.66
2019-05-28T22:18:02.313Z,101630.73
2019-05-28T22:20:29.791Z,101627.29
2019-05-28T22:22:58.327Z,101628.62
2019-05-28T22:25:25.918Z,101631.72
2019-05-28T22:27:53.391Z,101628.70
2019-05-28T22:30:21.183Z,101632.19
2019-05-28T22:32:48.635Z,101634.41
2019-05-28T22:35:16.108Z,101623.97
2019-05-28T22:37:43.560Z,101624.84
2019-05-28T22:40:10.992Z,101617.84
2019-05-28T22:42:38.623Z,101627.93
2019-05-28T22:45:07.155Z,101624.89
2019-05-28T22:47:35.079Z,101629.30
2019-05-28T22:50:18.074Z,101632.80
2019-05-28T22:52:32.256Z,101636.34
2019-05-28T22:54:59.875Z,101640.75
2019-05-28T22:57:27.602Z,101646.45
2019-05-28T22:59:55.362Z,101644.28
2019-05-28T23:02:23.130Z,101642.56
2019-05-28T23:04:50.897Z,101650.88
2019-05-28T23:07:18.566Z,101649.16
2019-05-28T23:09:46.441Z,101649.63
2019-05-28T23:12:14.152Z,101653.10
2019-05-28T23:14:41.826Z,101652.20
2019-05-28T23:17:10.389Z,101654.41
2019-05-28T23:19:39.569Z,101657.04
2019-05-28T23:22:07.231Z,101660.55
2019-05-28T23:24:34.900Z,101665.80
2019-05-28T23:27:03.546Z,101664.50
2019-05-28T23:29:31.366Z,101661.05
2019-05-28T23:31:58.962Z,101662.38
2019-05-28T23:34:26.698Z,101668.94
2019-05-28T23:36:54.364Z,101665.02
2019-05-28T23:39:22.135Z,101673.78
2019-05-28T23:41:49.845Z,101679.93
2019-05-28T23:44:17.669Z,101674.27
2019-05-28T23:46:45.240Z,101677.33
2019-05-28T23:49:13.009Z,101682.58
2019-05-28T23:51:41.080Z,101687.83
2019-05-28T23:54:09.684Z,101687.42
2019-05-28T23:56:37.355Z,101695.77
2019-05-28T23:59:05.652Z,101695.77
